Airfield :
LOGIN :

Register | Disclaimer

   EN    FR    IT 

 










Legend :    VFR   Marginal VFR   IFR   Intensive IFR   Very Intensive IFR
Visi :
Ceiling :
>= 8 km
>= 3000ft
5 to 8 km
1000 to 3000 ft
1500m to 5 km
500 to 1000 ft
800 to 1500m
200 to 500 ft
< 800m
< 200 ft
Symbols :   Thunderstorms  Fog  Heavy snow  Heavy precipitations  Wind > 20 kt
SIGMETs :     Misc.  Thunderstorms  Icing  Turbulence  Mountain Waves  Volcanic Ashes






- Airport Elevation : 266 ft
- IATA code : MMK


ULMM - Murmansk

CURRENT METAR :
  • 021130Z 17004MPS CAVOK 20/07 Q1016 R13/110070 NOSIG RMK QFE755

EXPIRED METARs :
  • 021100Z 16005MPS CAVOK 20/07 Q1016 R13/110070 NOSIG RMK QFE755
  • 021030Z 17004MPS CAVOK 20/06 Q1016 R13/110070 NOSIG RMK QFE755
  • 021000Z 18004MPS 150V220 CAVOK 20/07 Q1016 R13/110070 NOSIG RMK QFE755
  • 020930Z 18004MPS CAVOK 21/07 Q1017 R13/110070 NOSIG RMK QFE756
  • 020900Z 18004MPS 150V230 CAVOK 21/06 Q1017 R13/110070 NOSIG RMK QFE756

TAF TAF ULMM
Valid from the 02 at 12:00 until the 03 at 12:00 UTC


021050Z 0212/0312 19003G08MPS 6000 -SHRA BKN016CB
TEMPO 0212/0223 23006G12MPS 1500 TSRA
BECMG 0223/0224 01003G08MPS BKN011CB
TEMPO 0300/0306 04003MPS 3100 -SHRA BR BKN004 BKN011CB
BECMG 0306/0307 3100 -SHRA BKN006 BKN011CB
TEMPO 0307/0312 04003MPS 1600 SHRA BR BKN003 BKN011CB



MET'MAP, your aeronautical weather chart ! - Copyright ORBIFLY December 2007 - Disclaimer

ORBIFLY MET'MAP TEAM :

Programming & Development : Alexandra Zaïnal
Concept & original design : Baudouin d'Aumeries
Assistance for programming : Marc-Olivier Méhu
Technical & hardware support : Manuel Goepfert

Contact : metmap@orbifly.com




SOURCES & CREDITS :

   NOAA